createdAt,value
2023-05-09T00:01:32.783Z,10.17
2023-05-09T00:04:03.050Z,9.87
2023-05-09T00:06:34.279Z,10.90
2023-05-09T00:09:07.782Z,9.83
2023-05-09T00:11:38.560Z,10.50
2023-05-09T00:14:10.104Z,10.83
2023-05-09T00:16:41.168Z,9.40
2023-05-09T00:19:11.630Z,11.37
2023-05-09T00:21:41.331Z,11.20
2023-05-09T00:24:13.647Z,11.27
2023-05-09T00:26:44.493Z,11.03
2023-05-09T00:29:15.026Z,10.20
2023-05-09T00:31:46.002Z,10.43
2023-05-09T00:34:16.254Z,10.47
2023-05-09T00:36:47.091Z,10.40
2023-05-09T00:39:19.605Z,9.97
2023-05-09T00:41:49.364Z,9.13
2023-05-09T00:44:19.555Z,11.13
2023-05-09T00:46:49.705Z,10.73
2023-05-09T00:49:19.081Z,10.53
2023-05-09T00:51:49.981Z,10.80
2023-05-09T00:54:22.173Z,9.50
2023-05-09T00:56:53.017Z,11.10
2023-05-09T00:59:23.410Z,9.50
2023-05-09T01:01:53.653Z,11.13
2023-05-09T01:04:25.156Z,10.90
2023-05-09T01:07:00.704Z,10.10
2023-05-09T01:09:38.193Z,9.93
2023-05-09T01:12:15.745Z,10.23
2023-05-09T01:14:51.888Z,10.10
2023-05-09T01:17:33.982Z,10.93
2023-05-09T01:20:11.686Z,10.97
2023-05-09T01:22:48.472Z,10.57
2023-05-09T01:25:53.555Z,9.70
2023-05-09T01:28:45.486Z,9.70
2023-05-09T01:31:17.780Z,10.37
2023-05-09T01:33:52.401Z,10.90
2023-05-09T01:36:24.144Z,9.80
2023-05-09T01:38:54.969Z,9.90
2023-05-09T01:41:27.447Z,10.30
2023-05-09T01:43:58.130Z,11.03
2023-05-09T01:46:30.259Z,10.80
2023-05-09T01:49:00.807Z,10.70
2023-05-09T01:51:34.017Z,9.67
2023-05-09T01:54:04.003Z,10.60
2023-05-09T01:56:37.072Z,10.20
2023-05-09T01:59:08.964Z,9.20
2023-05-09T02:01:41.462Z,10.03
2023-05-09T02:04:12.333Z,10.60
2023-05-09T02:06:43.963Z,9.97
2023-05-09T02:09:15.352Z,11.07
2023-05-09T02:11:45.878Z,9.40
2023-05-09T02:14:16.791Z,9.23
2023-05-09T02:16:48.445Z,10.77
2023-05-09T02:19:18.480Z,10.83
2023-05-09T02:21:48.223Z,9.10
2023-05-09T02:24:18.120Z,10.47
2023-05-09T02:26:48.259Z,9.33
2023-05-09T02:29:19.941Z,9.43
2023-05-09T02:31:53.720Z,8.50
2023-05-09T02:34:24.129Z,9.40
2023-05-09T02:36:54.043Z,9.10
2023-05-09T02:39:23.696Z,9.20
2023-05-09T02:41:53.827Z,8.50
2023-05-09T02:44:24.072Z,8.33
2023-05-09T02:46:55.960Z,9.30
2023-05-09T02:49:32.139Z,7.87
2023-05-09T02:52:03.380Z,7.93
2023-05-09T02:54:33.858Z,8.93
2023-05-09T02:57:04.678Z,7.67
2023-05-09T02:59:37.681Z,8.73
2023-05-09T03:02:12.108Z,8.70
2023-05-09T03:04:43.800Z,7.70
2023-05-09T03:07:13.780Z,8.40
2023-05-09T03:09:43.864Z,8.60
2023-05-09T03:12:14.336Z,8.60
2023-05-09T03:14:44.883Z,8.03
2023-05-09T03:17:21.810Z,8.23
2023-05-09T03:19:52.875Z,7.90
2023-05-09T03:22:23.561Z,8.20
2023-05-09T03:24:55.404Z,8.37
2023-05-09T03:27:26.660Z,7.50
2023-05-09T03:30:03.633Z,8.00
2023-05-09T03:32:36.371Z,8.07
2023-05-09T03:35:07.800Z,7.93
2023-05-09T03:37:38.960Z,6.80
2023-05-09T03:40:11.868Z,8.30
2023-05-09T03:42:42.215Z,7.30
2023-05-09T03:45:14.404Z,8.20
2023-05-09T03:47:47.175Z,7.43
2023-05-09T03:50:17.647Z,8.53
2023-05-09T03:52:48.183Z,8.37
2023-05-09T03:55:19.342Z,8.23
2023-05-09T03:57:50.432Z,7.60
2023-05-09T04:00:22.160Z,7.67
2023-05-09T04:02:54.442Z,7.40
2023-05-09T04:05:26.047Z,7.47
2023-05-09T04:07:57.674Z,7.70
2023-05-09T04:10:28.511Z,7.90
2023-05-09T04:12:59.690Z,7.50
2023-05-09T04:15:30.363Z,8.60
2023-05-09T04:18:02.377Z,7.60
2023-05-09T04:20:32.841Z,7.93
2023-05-09T04:23:03.547Z,8.00
2023-05-09T04:25:34.825Z,7.63
2023-05-09T04:28:06.519Z,7.63
2023-05-09T04:30:37.794Z,7.40
2023-05-09T04:33:09.912Z,6.93
2023-05-09T04:35:41.521Z,8.33
2023-05-09T04:38:12.983Z,7.00
2023-05-09T04:40:43.582Z,7.70
2023-05-09T04:43:14.592Z,6.90
2023-05-09T04:45:47.482Z,6.70
2023-05-09T04:48:18.819Z,6.73
2023-05-09T04:50:50.904Z,7.37
2023-05-09T04:53:21.957Z,6.63
2023-05-09T04:55:53.936Z,6.17
2023-05-09T04:58:26.070Z,6.43
2023-05-09T05:00:57.878Z,6.63
2023-05-09T05:03:29.889Z,6.80
2023-05-09T05:06:01.202Z,7.03
2023-05-09T05:08:32.216Z,6.27
2023-05-09T05:11:02.557Z,5.73
2023-05-09T05:13:33.041Z,6.30
2023-05-09T05:16:04.368Z,6.53
2023-05-09T05:18:36.614Z,5.90
2023-05-09T05:21:07.805Z,6.47
2023-05-09T05:23:38.415Z,6.03
2023-05-09T05:26:09.003Z,6.10
2023-05-09T05:28:39.447Z,6.53
2023-05-09T05:31:09.664Z,5.87
2023-05-09T05:33:42.231Z,5.70
2023-05-09T05:36:13.414Z,7.00
2023-05-09T05:38:45.499Z,6.40
2023-05-09T05:41:17.082Z,6.20
2023-05-09T05:43:47.393Z,6.43
2023-05-09T05:46:18.236Z,6.30
2023-05-09T05:48:49.416Z,6.33
2023-05-09T05:51:19.813Z,6.00
2023-05-09T05:53:50.136Z,6.23
2023-05-09T05:56:21.174Z,5.30
2023-05-09T05:58:51.896Z,5.73
2023-05-09T06:01:21.897Z,6.97
2023-05-09T06:03:56.480Z,5.87
2023-05-09T06:06:28.813Z,5.57
2023-05-09T06:08:59.597Z,6.27
2023-05-09T06:11:29.743Z,6.63
2023-05-09T06:14:00.684Z,6.27
2023-05-09T06:16:30.634Z,5.90
2023-05-09T06:19:02.389Z,5.40
2023-05-09T06:21:32.008Z,6.87
2023-05-09T06:24:09.724Z,6.63
2023-05-09T06:26:44.701Z,6.87
2023-05-09T06:29:17.378Z,5.63
2023-05-09T06:31:48.389Z,6.03
2023-05-09T06:34:19.871Z,5.50
2023-05-09T06:36:50.347Z,5.30
2023-05-09T06:39:21.133Z,5.87
2023-05-09T06:41:52.118Z,6.10
2023-05-09T06:44:23.211Z,6.00
2023-05-09T06:46:53.964Z,5.43
2023-05-09T06:49:25.773Z,6.43
2023-05-09T06:51:56.494Z,5.73
2023-05-09T06:54:26.944Z,5.40
2023-05-09T06:56:58.991Z,5.13
2023-05-09T06:59:29.330Z,5.77
2023-05-09T07:01:59.985Z,6.07
2023-05-09T07:04:31.545Z,5.50
2023-05-09T07:07:02.164Z,5.03
2023-05-09T07:09:32.704Z,5.67
2023-05-09T07:12:04.127Z,5.80
2023-05-09T07:14:34.269Z,5.43
2023-05-09T07:17:21.241Z,6.13
2023-05-09T07:19:54.736Z,5.57
2023-05-09T07:22:24.749Z,7.17
2023-05-09T07:24:54.872Z,6.57
2023-05-09T07:27:25.642Z,5.93
2023-05-09T07:29:56.235Z,6.23
2023-05-09T07:32:25.736Z,5.60
2023-05-09T07:34:57.154Z,6.60
2023-05-09T07:37:26.926Z,5.47
2023-05-09T07:39:56.783Z,7.50
2023-05-09T07:42:26.578Z,4.57
2023-05-09T07:44:56.852Z,5.63
2023-05-09T07:47:27.191Z,4.93
2023-05-09T07:50:00.019Z,5.63
2023-05-09T07:52:31.283Z,5.77
2023-05-09T07:55:03.174Z,6.20
2023-05-09T07:57:33.749Z,5.00
2023-05-09T08:00:06.945Z,6.60
2023-05-09T08:02:38.828Z,7.00
2023-05-09T08:05:14.429Z,6.53
2023-05-09T08:07:45.686Z,6.90
2023-05-09T08:10:16.886Z,6.20
2023-05-09T08:12:46.847Z,7.67
2023-05-09T08:15:17.465Z,6.70
2023-05-09T08:17:48.424Z,6.60
2023-05-09T08:20:20.035Z,6.77
2023-05-09T08:22:51.656Z,7.63
2023-05-09T08:25:22.846Z,6.93
2023-05-09T08:27:56.470Z,6.30
2023-05-09T08:30:26.352Z,7.60
2023-05-09T08:32:56.423Z,5.93
2023-05-09T08:35:29.366Z,7.80
2023-05-09T08:38:00.528Z,7.23
2023-05-09T08:40:30.650Z,6.87
2023-05-09T08:43:00.530Z,6.57
2023-05-09T08:45:32.004Z,7.07
2023-05-09T08:48:03.879Z,6.90
2023-05-09T08:50:35.720Z,6.97
2023-05-09T08:53:06.210Z,6.20
2023-05-09T08:55:36.183Z,7.63
2023-05-09T08:58:06.454Z,7.43
2023-05-09T09:00:37.127Z,6.63
2023-05-09T09:03:09.911Z,7.80
2023-05-09T09:05:46.313Z,7.57
2023-05-09T09:08:17.218Z,7.43
2023-05-09T09:10:49.489Z,7.20
2023-05-09T09:13:20.213Z,6.20
2023-05-09T09:15:52.244Z,7.03
2023-05-09T09:18:26.153Z,6.33
2023-05-09T09:21:02.398Z,5.93
2023-05-09T09:23:33.237Z,7.73
2023-05-09T09:26:05.188Z,6.50
2023-05-09T09:28:36.096Z,7.57
2023-05-09T09:31:22.710Z,7.10
2023-05-09T09:33:54.099Z,6.10
2023-05-09T09:36:36.869Z,8.10
2023-05-09T09:39:09.646Z,7.00
2023-05-09T09:41:41.505Z,7.40
2023-05-09T09:44:12.182Z,8.07
2023-05-09T09:46:47.474Z,8.07
2023-05-09T09:49:19.560Z,7.20
2023-05-09T09:51:55.220Z,6.10
2023-05-09T09:54:27.886Z,7.13
2023-05-09T09:56:58.435Z,6.63
2023-05-09T09:59:29.257Z,7.10
2023-05-09T10:02:03.993Z,7.27
2023-05-09T10:04:38.063Z,8.07
2023-05-09T10:07:13.731Z,6.90
2023-05-09T10:09:46.155Z,6.57
2023-05-09T10:12:20.014Z,7.00
2023-05-09T10:14:52.341Z,8.20
2023-05-09T10:17:25.494Z,7.30
2023-05-09T10:19:56.616Z,7.23
2023-05-09T10:22:30.423Z,7.20
2023-05-09T10:25:06.954Z,8.23
2023-05-09T10:27:39.055Z,8.77
2023-05-09T10:30:14.366Z,6.87
2023-05-09T10:32:52.599Z,7.77
2023-05-09T10:35:29.488Z,7.80
2023-05-09T10:38:02.426Z,6.90
2023-05-09T10:40:33.915Z,8.67
2023-05-09T10:43:03.671Z,7.87
2023-05-09T10:45:34.865Z,7.17
2023-05-09T10:48:07.494Z,7.17
2023-05-09T10:50:40.516Z,8.10
2023-05-09T10:53:14.821Z,10.20
2023-05-09T10:55:56.780Z,9.27
2023-05-09T10:58:28.950Z,7.90
2023-05-09T11:00:59.926Z,8.60
2023-05-09T11:03:31.968Z,8.27
2023-05-09T11:06:03.141Z,6.17
2023-05-09T11:08:34.517Z,7.83
2023-05-09T11:11:09.413Z,7.50
2023-05-09T11:13:40.832Z,8.37
2023-05-09T11:16:13.429Z,8.47
2023-05-09T11:18:54.214Z,9.20
2023-05-09T11:21:24.907Z,9.10
2023-05-09T11:23:57.014Z,9.30
2023-05-09T11:26:33.311Z,9.10
2023-05-09T11:29:03.120Z,7.57
2023-05-09T11:31:34.034Z,8.83
2023-05-09T11:34:07.794Z,8.40
2023-05-09T11:36:39.188Z,9.13
2023-05-09T11:39:13.348Z,9.67
2023-05-09T11:41:44.540Z,8.30
2023-05-09T11:44:17.278Z,8.53
2023-05-09T11:46:49.289Z,9.97
2023-05-09T11:49:20.771Z,7.90
2023-05-09T11:51:50.944Z,10.00
2023-05-09T11:54:25.542Z,10.67
2023-05-09T11:56:57.087Z,10.50
2023-05-09T11:59:27.057Z,10.20
2023-05-09T12:01:58.395Z,9.50
2023-05-09T12:04:28.242Z,10.50
2023-05-09T12:07:00.647Z,10.90
2023-05-09T12:09:35.230Z,10.03
2023-05-09T12:12:13.654Z,10.17
2023-05-09T12:14:44.135Z,8.50
2023-05-09T12:17:15.071Z,10.07
2023-05-09T12:19:45.811Z,10.13
2023-05-09T12:22:16.221Z,9.13
2023-05-09T12:24:48.930Z,9.90
2023-05-09T12:27:20.830Z,8.87
2023-05-09T12:29:54.860Z,9.13
2023-05-09T12:32:25.779Z,9.13
2023-05-09T12:34:55.611Z,8.40
2023-05-09T12:37:26.640Z,7.93
2023-05-09T12:40:08.039Z,8.60
2023-05-09T12:42:38.664Z,8.60
2023-05-09T12:45:12.131Z,8.10
2023-05-09T12:47:43.218Z,8.80
2023-05-09T12:50:15.208Z,9.50
2023-05-09T12:53:01.447Z,9.33
2023-05-09T12:55:44.066Z,8.10
2023-05-09T12:58:19.121Z,7.50
2023-05-09T13:00:50.014Z,7.87
2023-05-09T13:03:28.616Z,7.67
2023-05-09T13:06:00.174Z,8.00
2023-05-09T13:08:31.313Z,8.13
2023-05-09T13:11:14.870Z,5.83
2023-05-09T13:13:46.916Z,8.53
2023-05-09T13:16:17.773Z,7.23
2023-05-09T13:18:48.538Z,6.90
2023-05-09T13:21:18.804Z,7.23
2023-05-09T13:23:50.425Z,7.83
2023-05-09T13:26:23.104Z,6.30
2023-05-09T13:28:53.046Z,6.77
2023-05-09T13:31:23.112Z,7.20
2023-05-09T13:33:53.819Z,7.03
2023-05-09T13:36:24.245Z,7.10
2023-05-09T13:38:55.192Z,7.80
2023-05-09T13:41:27.087Z,7.10
2023-05-09T13:43:57.254Z,7.60
2023-05-09T13:46:28.855Z,8.27
2023-05-09T13:49:00.508Z,7.10
2023-05-09T13:51:30.928Z,6.97
2023-05-09T13:54:00.650Z,6.57
2023-05-09T13:56:33.381Z,8.00
2023-05-09T13:59:03.532Z,6.93
2023-05-09T14:01:34.210Z,6.40
2023-05-09T14:04:04.769Z,8.63
2023-05-09T14:06:34.893Z,7.33
2023-05-09T14:09:09.727Z,7.00
2023-05-09T14:11:46.025Z,7.17
2023-05-09T14:14:17.860Z,7.43
2023-05-09T14:16:49.382Z,7.90
2023-05-09T14:19:20.202Z,6.90
2023-05-09T14:21:51.298Z,5.83
2023-05-09T14:24:22.049Z,6.33
2023-05-09T14:26:54.553Z,6.80
2023-05-09T14:29:25.552Z,6.13
2023-05-09T14:31:56.926Z,6.33
2023-05-09T14:34:27.819Z,6.03
2023-05-09T14:36:58.862Z,5.73
2023-05-09T14:39:29.776Z,5.70
2023-05-09T14:42:02.911Z,5.27
2023-05-09T14:44:33.514Z,4.50
2023-05-09T14:47:03.513Z,4.67
2023-05-09T14:49:35.267Z,4.73
2023-05-09T14:52:06.203Z,5.50
2023-05-09T14:54:37.262Z,4.57
2023-05-09T14:57:09.986Z,5.37
2023-05-09T14:59:41.107Z,4.50
2023-05-09T15:02:11.417Z,6.23
2023-05-09T15:04:49.431Z,6.00
2023-05-09T15:07:20.967Z,5.33
2023-05-09T15:09:52.311Z,5.47
2023-05-09T15:12:24.811Z,5.70
2023-05-09T15:14:58.456Z,4.80
2023-05-09T15:17:28.550Z,5.80
2023-05-09T15:19:59.441Z,5.40
2023-05-09T15:22:34.115Z,6.50
2023-05-09T15:25:05.462Z,5.10
2023-05-09T15:27:38.700Z,5.27
2023-05-09T15:30:10.196Z,6.60
2023-05-09T15:32:43.551Z,5.53
2023-05-09T15:35:14.011Z,5.67
2023-05-09T15:37:45.073Z,5.70
2023-05-09T15:40:15.755Z,5.63
2023-05-09T15:42:49.982Z,5.43
2023-05-09T15:45:20.067Z,5.20
2023-05-09T15:47:50.708Z,5.90
2023-05-09T15:50:21.612Z,4.60
2023-05-09T15:52:53.230Z,6.20
2023-05-09T15:55:25.007Z,4.87
2023-05-09T15:57:59.763Z,4.77
2023-05-09T16:00:31.455Z,4.80
2023-05-09T16:03:01.629Z,4.60
2023-05-09T16:05:32.419Z,5.00
2023-05-09T16:08:03.394Z,5.50
2023-05-09T16:10:34.992Z,5.20
2023-05-09T16:13:07.666Z,5.00
2023-05-09T16:15:38.300Z,6.17
2023-05-09T16:18:08.983Z,4.90
2023-05-09T16:20:39.288Z,4.67
2023-05-09T16:23:09.481Z,5.03
2023-05-09T16:25:40.347Z,5.37
2023-05-09T16:28:12.170Z,6.20
2023-05-09T16:30:42.356Z,4.93
2023-05-09T16:33:13.231Z,5.43
2023-05-09T16:35:44.043Z,4.50
2023-05-09T16:38:15.172Z,4.90
2023-05-09T16:40:46.207Z,5.10
2023-05-09T16:43:20.372Z,5.60
2023-05-09T16:45:53.360Z,6.10
2023-05-09T16:48:24.235Z,4.87
2023-05-09T16:50:54.671Z,5.10
2023-05-09T16:53:26.409Z,4.30
2023-05-09T16:55:58.597Z,4.87
2023-05-09T16:58:30.232Z,4.20
2023-05-09T17:01:02.738Z,3.90
2023-05-09T17:03:33.598Z,4.33
2023-05-09T17:06:03.910Z,3.83
2023-05-09T17:08:33.637Z,4.70
2023-05-09T17:11:03.135Z,4.73
2023-05-09T17:13:33.941Z,4.50
2023-05-09T17:16:04.492Z,3.40
2023-05-09T17:18:38.005Z,3.63
2023-05-09T17:21:08.800Z,3.77
2023-05-09T17:23:38.568Z,3.90
2023-05-09T17:26:08.430Z,3.50
2023-05-09T17:28:39.686Z,4.17
2023-05-09T17:31:09.485Z,3.20
2023-05-09T17:33:40.267Z,3.53
2023-05-09T17:36:10.303Z,4.17
2023-05-09T17:38:40.085Z,4.10
2023-05-09T17:41:10.423Z,3.50
2023-05-09T17:43:41.366Z,4.50
2023-05-09T17:46:11.500Z,3.67
2023-05-09T17:48:41.245Z,3.87
2023-05-09T17:51:10.839Z,4.43
2023-05-09T17:53:40.162Z,4.40
2023-05-09T17:56:11.058Z,3.27
2023-05-09T17:58:44.541Z,4.03
2023-05-09T18:01:15.915Z,3.80
2023-05-09T18:03:45.756Z,3.80
2023-05-09T18:06:16.357Z,2.90
2023-05-09T18:08:46.892Z,3.40
2023-05-09T18:11:17.532Z,3.30
2023-05-09T18:13:49.215Z,3.50
2023-05-09T18:16:20.470Z,2.80
2023-05-09T18:18:52.354Z,3.17
2023-05-09T18:21:25.297Z,3.50
2023-05-09T18:23:56.650Z,3.70
2023-05-09T18:26:28.044Z,4.20
2023-05-09T18:29:00.635Z,4.60
2023-05-09T18:31:31.855Z,4.70
2023-05-09T18:34:01.827Z,5.10
2023-05-09T18:36:31.888Z,5.10
2023-05-09T18:39:02.385Z,5.97
2023-05-09T18:41:34.351Z,5.73
2023-05-09T18:44:05.597Z,6.67
2023-05-09T18:46:35.632Z,7.37
2023-05-09T18:49:05.365Z,7.23
2023-05-09T18:51:36.808Z,7.50
2023-05-09T18:54:08.609Z,6.73
2023-05-09T18:56:42.075Z,7.90
2023-05-09T18:59:16.749Z,7.93
2023-05-09T19:01:46.618Z,6.67
2023-05-09T19:04:18.833Z,6.27
2023-05-09T19:06:49.733Z,7.67
2023-05-09T19:09:19.945Z,6.60
2023-05-09T19:11:50.184Z,6.77
2023-05-09T19:14:22.217Z,5.90
2023-05-09T19:16:52.353Z,5.70
2023-05-09T19:19:22.580Z,7.53
2023-05-09T19:21:52.379Z,8.03
2023-05-09T19:24:22.392Z,9.03
2023-05-09T19:26:53.246Z,6.50
2023-05-09T19:29:24.732Z,7.43
2023-05-09T19:31:56.573Z,7.83
2023-05-09T19:34:27.086Z,6.10
2023-05-09T19:36:57.532Z,6.50
2023-05-09T19:39:29.302Z,8.03
2023-05-09T19:42:00.426Z,6.93
2023-05-09T19:44:32.325Z,7.10
2023-05-09T19:47:05.474Z,7.40
2023-05-09T19:49:36.038Z,6.80
2023-05-09T19:52:06.874Z,6.37
2023-05-09T19:54:37.945Z,7.10
2023-05-09T19:57:08.346Z,6.80
2023-05-09T19:59:40.724Z,5.80
2023-05-09T20:02:11.623Z,6.20
2023-05-09T20:04:46.974Z,7.10
2023-05-09T20:07:16.863Z,9.10
2023-05-09T20:09:46.825Z,14.60
2023-05-09T20:12:17.158Z,21.67
2023-05-09T20:14:49.462Z,17.97
2023-05-09T20:17:19.411Z,29.23
2023-05-09T20:19:49.557Z,28.30
2023-05-09T20:22:22.133Z,25.00
2023-05-09T20:24:53.198Z,21.70
2023-05-09T20:27:24.014Z,17.40
2023-05-09T20:29:55.768Z,17.07
2023-05-09T20:32:26.487Z,15.53
2023-05-09T20:34:56.729Z,15.17
2023-05-09T20:37:29.727Z,14.00
2023-05-09T20:40:00.490Z,14.10
2023-05-09T20:42:30.457Z,12.50
2023-05-09T20:45:01.991Z,12.30
2023-05-09T20:47:31.760Z,10.47
2023-05-09T20:50:02.444Z,10.57
2023-05-09T20:52:33.530Z,10.20
2023-05-09T20:55:04.365Z,8.63
2023-05-09T20:57:36.025Z,9.90
2023-05-09T21:00:10.775Z,9.40
2023-05-09T21:02:40.884Z,8.73
2023-05-09T21:05:11.148Z,7.63
2023-05-09T21:07:41.403Z,8.47
2023-05-09T21:10:12.538Z,7.50
2023-05-09T21:12:42.700Z,7.70
2023-05-09T21:15:16.330Z,9.23
2023-05-09T21:17:46.126Z,8.30
2023-05-09T21:20:16.814Z,10.30
2023-05-09T21:22:47.974Z,9.00
2023-05-09T21:25:20.661Z,10.97
2023-05-09T21:27:50.301Z,10.30
2023-05-09T21:30:22.909Z,9.80
2023-05-09T21:32:53.663Z,9.07
2023-05-09T21:35:24.189Z,8.70
2023-05-09T21:37:57.112Z,9.93
2023-05-09T21:40:27.451Z,8.00
2023-05-09T21:42:57.779Z,8.00
2023-05-09T21:45:28.784Z,7.30
2023-05-09T21:47:59.201Z,7.40
2023-05-09T21:50:29.957Z,7.73
2023-05-09T21:53:00.766Z,6.87
2023-05-09T21:55:30.935Z,7.70
2023-05-09T21:58:00.975Z,7.80
2023-05-09T22:00:34.095Z,6.80
2023-05-09T22:03:03.839Z,7.00
2023-05-09T22:05:35.264Z,6.13
2023-05-09T22:08:04.757Z,6.83
2023-05-09T22:10:34.713Z,6.60
2023-05-09T22:13:05.121Z,5.97
2023-05-09T22:15:38.048Z,6.10
2023-05-09T22:18:08.209Z,6.63
2023-05-09T22:20:38.201Z,6.00
2023-05-09T22:23:08.736Z,6.47
2023-05-09T22:25:38.834Z,6.30
2023-05-09T22:28:09.312Z,6.77
2023-05-09T22:30:40.590Z,7.43
2023-05-09T22:33:10.601Z,6.47
2023-05-09T22:35:40.735Z,7.23
2023-05-09T22:38:10.824Z,7.80
2023-05-09T22:40:40.995Z,7.63
2023-05-09T22:43:12.227Z,6.37
2023-05-09T22:45:44.454Z,7.27
2023-05-09T22:48:14.928Z,5.87
2023-05-09T22:50:45.940Z,5.67
2023-05-09T22:53:16.192Z,6.43
2023-05-09T22:55:45.817Z,5.90
2023-05-09T22:58:15.795Z,6.40
2023-05-09T23:00:47.488Z,5.53
2023-05-09T23:03:18.180Z,5.43
2023-05-09T23:05:49.154Z,6.43
2023-05-09T23:08:18.902Z,5.73
2023-05-09T23:10:49.466Z,5.83
2023-05-09T23:13:19.047Z,5.50
2023-05-09T23:15:52.662Z,5.23
2023-05-09T23:18:24.067Z,4.83
2023-05-09T23:20:53.735Z,5.17
2023-05-09T23:23:23.266Z,5.43
2023-05-09T23:25:53.308Z,5.30
2023-05-09T23:28:25.395Z,5.93
2023-05-09T23:30:57.474Z,4.97
2023-05-09T23:33:28.933Z,5.47
2023-05-09T23:35:59.070Z,6.27
2023-05-09T23:38:29.148Z,5.67
2023-05-09T23:41:01.307Z,5.60
2023-05-09T23:43:31.783Z,5.30
2023-05-09T23:46:04.480Z,4.63
2023-05-09T23:48:35.029Z,4.70
2023-05-09T23:51:05.255Z,5.23
2023-05-09T23:53:35.732Z,5.20
2023-05-09T23:56:07.748Z,4.23
2023-05-09T23:58:37.887Z,4.70
